createdAt,value
2023-11-04T00:01:16.093Z,3.95
2023-11-04T00:03:48.685Z,3.90
2023-11-04T00:06:15.853Z,3.92
2023-11-04T00:08:42.758Z,4.72
2023-11-04T00:11:09.682Z,4.53
2023-11-04T00:13:37.325Z,4.25
2023-11-04T00:16:09.855Z,4.90
2023-11-04T00:18:38.037Z,4.53
2023-11-04T00:21:08.619Z,4.97
2023-11-04T00:23:35.689Z,5.05
2023-11-04T00:26:02.709Z,5.03
2023-11-04T00:28:29.534Z,5.47
2023-11-04T00:30:56.373Z,5.18
2023-11-04T00:33:23.311Z,5.18
2023-11-04T00:35:50.628Z,5.65
2023-11-04T00:38:17.531Z,6.03
2023-11-04T00:40:44.732Z,5.40
2023-11-04T00:43:11.671Z,5.38
2023-11-04T00:45:38.616Z,5.28
2023-11-04T00:48:05.820Z,5.22
2023-11-04T00:50:32.781Z,5.35
2023-11-04T00:52:59.772Z,5.47
2023-11-04T00:55:26.800Z,5.07
2023-11-04T00:57:53.693Z,5.30
2023-11-04T01:00:27.013Z,5.10
2023-11-04T01:02:56.843Z,5.03
2023-11-04T01:05:24.869Z,4.90
2023-11-04T01:07:51.885Z,4.57
2023-11-04T01:10:18.975Z,4.85
2023-11-04T01:12:46.104Z,4.68
2023-11-04T01:15:13.288Z,5.53
2023-11-04T01:17:40.258Z,5.50
2023-11-04T01:20:09.191Z,4.85
2023-11-04T01:22:36.644Z,4.72
2023-11-04T01:25:04.190Z,5.03
2023-11-04T01:27:31.097Z,4.93
2023-11-04T01:29:58.124Z,4.30
2023-11-04T01:32:25.021Z,4.40
2023-11-04T01:34:52.150Z,4.05
2023-11-04T01:37:20.555Z,4.68
2023-11-04T01:39:48.019Z,4.28
2023-11-04T01:42:15.205Z,4.30
2023-11-04T01:44:42.138Z,4.55
2023-11-04T01:47:09.065Z,4.20
2023-11-04T01:49:36.302Z,4.03
2023-11-04T01:52:04.592Z,4.22
2023-11-04T01:54:32.572Z,3.70
2023-11-04T01:57:00.439Z,4.10
2023-11-04T01:59:28.678Z,3.70
2023-11-04T02:01:55.973Z,4.03
2023-11-04T02:04:23.324Z,4.05
2023-11-04T02:06:50.321Z,4.38
2023-11-04T02:09:17.441Z,4.30
2023-11-04T02:11:44.612Z,3.55
2023-11-04T02:14:13.407Z,3.95
2023-11-04T02:16:40.422Z,3.85
2023-11-04T02:19:07.942Z,4.15
2023-11-04T02:21:34.985Z,4.38
2023-11-04T02:24:01.936Z,4.28
2023-11-04T02:26:29.082Z,4.40
2023-11-04T02:28:55.992Z,4.32
2023-11-04T02:31:22.880Z,4.60
2023-11-04T02:33:49.881Z,4.38
2023-11-04T02:36:16.802Z,4.70
2023-11-04T02:38:43.805Z,4.20
2023-11-04T02:41:10.816Z,4.95
2023-11-04T02:43:37.786Z,4.75
2023-11-04T02:46:05.413Z,5.13
2023-11-04T02:48:32.554Z,4.50
2023-11-04T02:50:59.561Z,4.43
2023-11-04T02:53:26.436Z,3.83
2023-11-04T02:55:53.356Z,3.85
2023-11-04T02:58:20.418Z,3.45
2023-11-04T03:00:47.281Z,3.92
2023-11-04T03:03:14.977Z,3.60
2023-11-04T03:05:42.036Z,3.92
2023-11-04T03:08:09.126Z,3.78
2023-11-04T03:10:36.064Z,4.30
2023-11-04T03:13:03.048Z,3.25
2023-11-04T03:15:30.067Z,3.97
2023-11-04T03:17:57.073Z,3.95
2023-11-04T03:20:24.049Z,3.60
2023-11-04T03:22:51.187Z,3.35
2023-11-04T03:25:19.807Z,3.85
2023-11-04T03:27:46.904Z,3.90
2023-11-04T03:30:14.688Z,3.67
2023-11-04T03:32:41.736Z,3.55
2023-11-04T03:35:09.268Z,3.58
2023-11-04T03:37:36.228Z,3.83
2023-11-04T03:40:03.665Z,3.67
2023-11-04T03:42:30.685Z,3.83
2023-11-04T03:44:57.571Z,3.80
2023-11-04T03:47:24.636Z,4.00
2023-11-04T03:49:51.917Z,3.40
2023-11-04T03:52:18.792Z,4.00
2023-11-04T03:54:45.774Z,4.18
2023-11-04T03:57:12.673Z,4.10
2023-11-04T03:59:39.860Z,3.88
2023-11-04T04:02:08.574Z,3.38
2023-11-04T04:04:35.992Z,3.83
2023-11-04T04:07:03.127Z,3.75
2023-11-04T04:09:30.138Z,3.50
2023-11-04T04:11:58.899Z,3.90
2023-11-04T04:14:26.036Z,4.10
2023-11-04T04:16:52.877Z,3.80
2023-11-04T04:19:20.472Z,3.78
2023-11-04T04:21:47.604Z,3.53
2023-11-04T04:24:14.640Z,3.88
2023-11-04T04:26:41.539Z,3.53
2023-11-04T04:29:09.097Z,3.47
2023-11-04T04:31:36.296Z,3.67
2023-11-04T04:34:03.173Z,3.88
2023-11-04T04:36:31.545Z,3.20
2023-11-04T04:38:58.565Z,3.28
2023-11-04T04:41:27.265Z,3.75
2023-11-04T04:43:54.505Z,3.35
2023-11-04T04:46:21.503Z,2.95
2023-11-04T04:48:48.567Z,3.67
2023-11-04T04:51:17.996Z,3.72
2023-11-04T04:53:45.011Z,3.83
2023-11-04T04:56:11.924Z,3.50
2023-11-04T04:58:38.864Z,3.70
2023-11-04T05:01:06.120Z,3.40
2023-11-04T05:03:33.287Z,3.42
2023-11-04T05:06:00.708Z,3.55
2023-11-04T05:08:27.705Z,3.50
2023-11-04T05:10:54.510Z,3.60
2023-11-04T05:13:21.357Z,4.28
2023-11-04T05:15:48.455Z,4.18
2023-11-04T05:18:15.464Z,3.80
2023-11-04T05:20:42.982Z,4.00
2023-11-04T05:23:10.185Z,3.80
2023-11-04T05:25:38.428Z,3.53
2023-11-04T05:28:06.124Z,4.00
2023-11-04T05:30:36.140Z,3.90
2023-11-04T05:33:04.141Z,4.40
2023-11-04T05:35:31.288Z,4.97
2023-11-04T05:37:58.260Z,4.70
2023-11-04T05:40:25.162Z,5.13
2023-11-04T05:42:52.142Z,5.30
2023-11-04T05:45:19.041Z,5.13
2023-11-04T05:47:47.010Z,4.82
2023-11-04T05:50:13.989Z,5.20
2023-11-04T05:52:43.912Z,4.88
2023-11-04T05:55:12.699Z,5.07
2023-11-04T05:57:39.749Z,5.05
2023-11-04T06:00:13.073Z,4.28
2023-11-04T06:02:40.758Z,4.57
2023-11-04T06:07:36.980Z,3.90
2023-11-04T06:10:04.691Z,3.90
2023-11-04T06:12:32.105Z,3.60
2023-11-04T06:14:59.101Z,3.60
2023-11-04T06:17:26.110Z,3.08
2023-11-04T06:19:53.141Z,2.90
2023-11-04T06:22:21.029Z,3.47
2023-11-04T06:24:48.145Z,4.10
2023-11-04T06:27:15.140Z,4.00
2023-11-04T06:29:42.487Z,3.92
2023-11-04T06:32:09.413Z,4.03
2023-11-04T06:34:36.441Z,4.32
2023-11-04T06:37:06.868Z,3.83
2023-11-04T06:39:34.035Z,4.40
2023-11-04T06:42:01.150Z,4.38
2023-11-04T06:44:28.067Z,4.43
2023-11-04T06:46:54.998Z,5.65
2023-11-04T06:49:23.600Z,5.40
2023-11-04T06:51:50.742Z,6.40
2023-11-04T06:54:17.720Z,5.93
2023-11-04T06:56:44.662Z,5.57
2023-11-04T06:59:11.616Z,5.05
2023-11-04T07:01:39.276Z,5.50
2023-11-04T07:04:06.591Z,6.10
2023-11-04T07:06:33.651Z,6.90
2023-11-04T07:09:00.972Z,6.18
2023-11-04T07:11:27.940Z,6.57
2023-11-04T07:13:55.622Z,7.10
2023-11-04T07:16:22.660Z,6.55
2023-11-04T07:18:49.670Z,6.18
2023-11-04T07:21:16.689Z,5.72
2023-11-04T07:23:43.783Z,5.13
2023-11-04T07:26:10.817Z,5.15
2023-11-04T07:28:38.069Z,4.63
2023-11-04T07:31:10.131Z,4.65
2023-11-04T07:33:40.613Z,5.50
2023-11-04T07:36:08.248Z,5.00
2023-11-04T07:38:35.208Z,4.70
2023-11-04T07:41:02.165Z,5.43
2023-11-04T07:43:32.969Z,5.00
2023-11-04T07:46:00.405Z,4.57
2023-11-04T07:48:27.494Z,5.10
2023-11-04T07:50:54.849Z,4.72
2023-11-04T07:53:21.798Z,5.03
2023-11-04T07:55:50.425Z,4.75
2023-11-04T07:58:17.656Z,4.70
2023-11-04T08:00:47.399Z,4.80
2023-11-04T08:03:14.540Z,4.35
2023-11-04T08:05:42.041Z,4.70
2023-11-04T08:08:13.356Z,4.63
2023-11-04T08:10:40.384Z,4.85
2023-11-04T08:13:07.386Z,6.65
2023-11-04T08:15:35.502Z,6.40
2023-11-04T08:18:02.668Z,5.25
2023-11-04T08:20:29.680Z,5.18
2023-11-04T08:22:57.565Z,4.75
2023-11-04T08:25:25.129Z,6.75
2023-11-04T08:27:52.190Z,5.82
2023-11-04T08:30:19.388Z,4.30
2023-11-04T08:32:47.980Z,4.80
2023-11-04T08:35:16.043Z,4.97
2023-11-04T08:37:43.019Z,4.60
2023-11-04T08:40:10.262Z,4.68
2023-11-04T08:42:37.579Z,4.60
2023-11-04T08:45:05.025Z,4.72
2023-11-04T08:47:32.086Z,4.75
2023-11-04T08:49:59.053Z,4.45
2023-11-04T08:52:25.975Z,5.03
2023-11-04T08:54:53.099Z,4.55
2023-11-04T08:57:20.690Z,4.47
2023-11-04T08:59:47.827Z,4.68
2023-11-04T09:02:14.698Z,3.88
2023-11-04T09:04:42.345Z,4.22
2023-11-04T09:07:09.505Z,4.10
2023-11-04T09:09:36.527Z,4.57
2023-11-04T09:12:03.710Z,4.43
2023-11-04T09:14:30.856Z,5.57
2023-11-04T09:16:58.091Z,4.55
2023-11-04T09:19:25.672Z,4.20
2023-11-04T09:21:53.481Z,4.63
2023-11-04T09:24:20.513Z,4.55
2023-11-04T09:26:47.443Z,4.05
2023-11-04T09:29:14.359Z,4.45
2023-11-04T09:31:41.392Z,4.57
2023-11-04T09:34:11.684Z,3.70
2023-11-04T09:36:39.015Z,8.27
2023-11-04T09:39:08.240Z,7.28
2023-11-04T09:41:37.310Z,5.00
2023-11-04T09:44:05.284Z,5.18
2023-11-04T09:46:32.736Z,5.72
2023-11-04T09:49:00.981Z,4.80
2023-11-04T09:51:29.253Z,5.38
2023-11-04T09:54:00.404Z,5.85
2023-11-04T09:56:28.389Z,5.53
2023-11-04T09:58:56.057Z,4.90
2023-11-04T10:01:23.036Z,4.30
2023-11-04T10:03:50.437Z,4.70
2023-11-04T10:06:18.497Z,4.30
2023-11-04T10:08:46.486Z,4.25
2023-11-04T10:11:13.582Z,4.05
2023-11-04T10:13:41.102Z,4.47
2023-11-04T10:16:09.056Z,4.07
2023-11-04T10:18:36.276Z,6.32
2023-11-04T10:21:03.374Z,4.20
2023-11-04T10:23:31.451Z,4.43
2023-11-04T10:26:05.725Z,4.20
2023-11-04T10:28:33.702Z,3.78
2023-11-04T10:31:06.204Z,4.35
2023-11-04T10:33:38.274Z,4.53
2023-11-04T10:36:07.636Z,4.32
2023-11-04T10:38:38.713Z,7.20
2023-11-04T10:41:08.607Z,6.93
2023-11-04T10:48:12.720Z,4.73
2023-11-04T10:50:44.636Z,3.60
2023-11-04T10:56:09.144Z,2.47
2023-11-04T10:58:42.882Z,2.38
2023-11-04T11:01:13.481Z,1.70
2023-11-04T11:03:43.068Z,1.23
2023-11-04T11:06:12.381Z,1.85
2023-11-04T11:08:41.709Z,1.10
2023-11-04T11:11:18.687Z,1.08
2023-11-04T11:13:50.119Z,0.95
2023-11-04T11:16:18.053Z,1.25
2023-11-04T11:18:45.565Z,1.50
2023-11-04T11:21:12.841Z,1.65
2023-11-04T11:23:39.943Z,0.95
2023-11-04T11:26:09.486Z,1.25
2023-11-04T11:28:38.621Z,1.27
2023-11-04T11:31:09.476Z,1.20
2023-11-04T11:33:36.664Z,2.08
2023-11-04T11:36:11.198Z,1.23
2023-11-04T11:38:44.779Z,1.63
2023-11-04T11:41:17.099Z,1.30
2023-11-04T11:43:45.124Z,2.00
2023-11-04T11:46:12.374Z,1.80
2023-11-04T11:48:41.261Z,1.50
2023-11-04T11:51:13.914Z,1.30
2023-11-04T11:53:46.576Z,1.38
2023-11-04T11:56:14.225Z,1.40
2023-11-04T11:58:41.565Z,1.60
2023-11-04T12:01:09.884Z,1.45
2023-11-04T12:03:37.672Z,2.40
2023-11-04T12:06:05.595Z,1.63
2023-11-04T12:08:32.664Z,1.83
2023-11-04T12:11:00.523Z,2.47
2023-11-04T12:13:27.625Z,2.90
2023-11-04T12:15:54.879Z,1.65
2023-11-04T12:18:22.198Z,2.30
2023-11-04T12:20:49.433Z,1.75
2023-11-04T12:23:16.791Z,2.08
2023-11-04T12:25:44.309Z,1.40
2023-11-04T12:28:11.801Z,1.98
2023-11-04T12:30:39.092Z,2.30
2023-11-04T12:33:07.145Z,2.20
2023-11-04T12:35:37.830Z,1.83
2023-11-04T12:38:04.913Z,1.73
2023-11-04T12:40:32.393Z,1.42
2023-11-04T12:43:02.611Z,3.25
2023-11-04T12:45:30.640Z,2.92
2023-11-04T12:47:57.664Z,2.30
2023-11-04T12:50:24.771Z,3.97
2023-11-04T12:52:53.785Z,3.17
2023-11-04T12:55:21.265Z,2.10
2023-11-04T12:57:48.644Z,2.05
2023-11-04T13:00:16.174Z,3.33
2023-11-04T13:02:43.485Z,2.25
2023-11-04T13:05:10.811Z,2.22
2023-11-04T13:07:38.680Z,2.00
2023-11-04T13:10:07.220Z,2.35
2023-11-04T13:12:34.358Z,4.03
2023-11-04T13:15:01.386Z,3.20
2023-11-04T13:17:28.604Z,3.45
2023-11-04T13:19:55.876Z,3.45
2023-11-04T13:22:22.960Z,2.45
2023-11-04T13:24:50.031Z,3.45
2023-11-04T13:27:16.961Z,2.00
2023-11-04T13:29:43.883Z,2.53
2023-11-04T13:32:11.596Z,4.40
2023-11-04T13:34:38.690Z,4.50
2023-11-04T13:37:06.543Z,3.00
2023-11-04T13:39:33.535Z,3.67
2023-11-04T13:42:00.462Z,4.05
2023-11-04T13:44:27.492Z,3.30
2023-11-04T13:46:54.451Z,3.72
2023-11-04T13:49:21.452Z,3.53
2023-11-04T13:51:48.443Z,2.55
2023-11-04T13:54:15.428Z,3.15
2023-11-04T13:56:42.407Z,2.80
2023-11-04T13:59:09.855Z,3.10
2023-11-04T14:01:37.459Z,3.28
2023-11-04T14:04:05.239Z,3.58
2023-11-04T14:06:32.498Z,2.83
2023-11-04T14:09:01.611Z,2.90
2023-11-04T14:11:28.781Z,3.72
2023-11-04T14:13:55.732Z,4.40
2023-11-04T14:16:22.700Z,6.55
2023-11-04T14:18:49.872Z,7.22
2023-11-04T14:21:16.869Z,5.68
2023-11-04T14:23:43.871Z,5.38
2023-11-04T14:26:10.882Z,3.42
2023-11-04T14:28:37.845Z,4.32
2023-11-04T14:31:05.074Z,5.00
2023-11-04T14:33:32.348Z,5.10
2023-11-04T14:35:59.790Z,4.57
2023-11-04T14:38:26.822Z,4.97
2023-11-04T14:40:53.788Z,6.68
2023-11-04T14:43:20.902Z,5.63
2023-11-04T14:45:48.408Z,5.75
2023-11-04T14:48:15.449Z,6.32
2023-11-04T14:50:42.462Z,5.40
2023-11-04T14:53:09.447Z,4.70
2023-11-04T14:55:36.586Z,8.35
2023-11-04T14:58:03.628Z,8.73
2023-11-04T15:00:30.595Z,24.60
2023-11-04T15:02:58.681Z,15.07
2023-11-04T15:05:25.630Z,10.88
2023-11-04T15:07:52.714Z,8.93
2023-11-04T15:10:19.754Z,6.68
2023-11-04T15:12:48.334Z,6.32
2023-11-04T15:15:15.586Z,6.15
2023-11-04T15:17:43.130Z,5.50
2023-11-04T15:20:10.878Z,3.75
2023-11-04T15:22:37.957Z,4.22
2023-11-04T15:25:07.352Z,3.90
2023-11-04T15:27:34.570Z,3.30
2023-11-04T15:30:02.256Z,3.42
2023-11-04T15:32:29.437Z,2.60
2023-11-04T15:34:59.019Z,2.58
2023-11-04T15:37:27.932Z,2.40
2023-11-04T15:39:57.382Z,2.40
2023-11-04T15:42:24.290Z,2.25
2023-11-04T15:44:51.620Z,2.92
2023-11-04T15:47:18.748Z,2.35
2023-11-04T15:49:45.760Z,2.35
2023-11-04T15:52:13.154Z,2.03
2023-11-04T15:54:40.106Z,1.80
2023-11-04T15:57:07.064Z,1.65
2023-11-04T15:59:34.019Z,1.98
2023-11-04T16:02:00.953Z,1.70
2023-11-04T16:04:28.077Z,2.20
2023-11-04T16:06:56.135Z,1.98
2023-11-04T16:09:23.162Z,2.03
2023-11-04T16:11:51.024Z,1.65
2023-11-04T16:14:17.975Z,2.75
2023-11-04T16:16:45.087Z,3.38
2023-11-04T16:19:12.551Z,2.28
2023-11-04T16:21:39.567Z,2.10
2023-11-04T16:24:06.887Z,2.00
2023-11-04T16:26:35.005Z,2.08
2023-11-04T16:29:01.906Z,2.10
2023-11-04T16:31:28.893Z,2.15
2023-11-04T16:33:55.935Z,2.65
2023-11-04T16:36:23.204Z,2.40
2023-11-04T16:38:50.358Z,2.50
2023-11-04T16:41:17.313Z,2.38
2023-11-04T16:43:44.251Z,2.28
2023-11-04T16:46:11.400Z,2.30
2023-11-04T16:48:39.005Z,2.60
2023-11-04T16:51:06.276Z,2.83
2023-11-04T16:53:33.299Z,2.85
2023-11-04T16:56:00.208Z,2.30
2023-11-04T16:58:27.324Z,3.10
2023-11-04T17:00:56.172Z,2.70
2023-11-04T17:03:23.799Z,2.58
2023-11-04T17:05:51.109Z,2.72
2023-11-04T17:08:18.218Z,2.63
2023-11-04T17:10:45.305Z,2.53
2023-11-04T17:13:12.489Z,2.47
2023-11-04T17:15:43.140Z,2.53
2023-11-04T17:18:10.185Z,2.60
2023-11-04T17:20:37.259Z,2.47
2023-11-04T17:23:04.520Z,3.78
2023-11-04T17:25:31.683Z,4.10
2023-11-04T17:27:58.809Z,3.17
2023-11-04T17:30:25.941Z,3.58
2023-11-04T17:32:53.044Z,5.40
2023-11-04T17:35:20.378Z,5.13
2023-11-04T17:37:51.113Z,5.93
2023-11-04T17:40:19.238Z,6.70
2023-11-04T17:42:46.725Z,7.55
2023-11-04T17:45:16.845Z,6.78
2023-11-04T17:47:44.096Z,6.35
2023-11-04T17:50:11.593Z,6.95
2023-11-04T17:52:40.249Z,6.18
2023-11-04T17:55:07.723Z,6.70
2023-11-04T17:57:34.779Z,6.68
2023-11-04T18:00:01.743Z,6.53
2023-11-04T18:02:39.982Z,6.53
2023-11-04T18:05:09.224Z,7.10
2023-11-04T18:07:37.209Z,6.55
2023-11-04T18:10:05.267Z,6.47
2023-11-04T18:12:33.046Z,7.03
2023-11-04T18:15:00.220Z,6.32
2023-11-04T18:17:27.518Z,6.32
2023-11-04T18:19:55.084Z,8.02
2023-11-04T18:22:23.143Z,6.70
2023-11-04T18:24:50.984Z,6.43
2023-11-04T18:27:26.357Z,6.95
2023-11-04T18:30:02.563Z,6.78
2023-11-04T18:32:29.684Z,6.70
2023-11-04T18:34:56.667Z,6.47
2023-11-04T18:37:24.333Z,6.68
2023-11-04T18:39:51.337Z,6.30
2023-11-04T18:42:18.366Z,6.85
2023-11-04T18:44:47.256Z,5.68
2023-11-04T18:47:14.348Z,4.95
2023-11-04T18:49:41.689Z,5.88
2023-11-04T18:52:08.768Z,5.57
2023-11-04T18:54:37.908Z,5.80
2023-11-04T18:57:05.158Z,5.32
2023-11-04T18:59:32.176Z,5.53
2023-11-04T19:01:59.281Z,6.28
2023-11-04T19:04:26.309Z,5.68
2023-11-04T19:06:53.341Z,4.95
2023-11-04T19:09:20.448Z,5.30
2023-11-04T19:11:50.410Z,5.45
2023-11-04T19:14:17.593Z,5.55
2023-11-04T19:16:45.745Z,5.63
2023-11-04T19:19:12.816Z,4.95
2023-11-04T19:21:40.636Z,4.97
2023-11-04T19:24:10.820Z,4.97
2023-11-04T19:26:37.752Z,5.32
2023-11-04T19:29:04.806Z,5.32
2023-11-04T19:31:31.910Z,5.00
2023-11-04T19:33:59.327Z,4.97
2023-11-04T19:36:26.509Z,4.85
2023-11-04T19:38:53.488Z,5.40
2023-11-04T19:41:20.469Z,4.30
2023-11-04T19:43:47.400Z,5.07
2023-11-04T19:46:14.574Z,4.80
2023-11-04T19:48:42.216Z,4.63
2023-11-04T19:51:10.564Z,4.05
2023-11-04T19:53:37.952Z,3.92
2023-11-04T19:56:05.441Z,4.03
2023-11-04T19:58:32.976Z,3.58
2023-11-04T20:00:59.992Z,3.75
2023-11-04T20:03:27.312Z,3.28
2023-11-04T20:05:54.324Z,3.22
2023-11-04T20:08:21.478Z,3.13
2023-11-04T20:10:48.551Z,3.28
2023-11-04T20:13:16.123Z,3.47
2023-11-04T20:15:44.810Z,3.40
2023-11-04T20:18:12.541Z,2.97
2023-11-04T20:20:39.640Z,2.97
2023-11-04T20:23:08.215Z,3.60
2023-11-04T20:25:36.490Z,2.92
2023-11-04T20:28:03.998Z,2.97
2023-11-04T20:30:31.143Z,2.97
2023-11-04T20:32:58.169Z,3.25
2023-11-04T20:35:25.252Z,2.50
2023-11-04T20:37:52.911Z,2.53
2023-11-04T20:40:21.026Z,2.17
2023-11-04T20:42:48.016Z,2.40
2023-11-04T20:45:16.447Z,2.30
2023-11-04T20:47:43.417Z,1.95
2023-11-04T20:50:10.403Z,2.28
2023-11-04T20:52:38.338Z,2.10
2023-11-04T20:55:05.812Z,2.10
2023-11-04T20:57:33.205Z,1.95
2023-11-04T21:00:00.126Z,2.60
2023-11-04T21:02:27.972Z,2.92
2023-11-04T21:04:55.079Z,3.13
2023-11-04T21:07:23.336Z,4.13
2023-11-04T21:09:50.368Z,3.20
2023-11-04T21:12:17.328Z,2.55
2023-11-04T21:14:45.631Z,2.80
2023-11-04T21:17:13.580Z,5.22
2023-11-04T21:19:40.812Z,4.40
2023-11-04T21:22:07.858Z,3.60
2023-11-04T21:24:34.841Z,3.28
2023-11-04T21:27:01.865Z,2.97
2023-11-04T21:29:29.196Z,2.88
2023-11-04T21:31:56.193Z,2.67
2023-11-04T21:34:23.479Z,3.03
2023-11-04T21:36:51.085Z,3.30
2023-11-04T21:39:18.177Z,2.97
2023-11-04T21:41:45.336Z,2.80
2023-11-04T21:44:12.696Z,2.90
2023-11-04T21:46:40.315Z,2.85
2023-11-04T21:49:07.366Z,3.03
2023-11-04T21:51:34.895Z,3.00
2023-11-04T21:54:01.948Z,2.90
2023-11-04T21:56:28.901Z,2.90
2023-11-04T21:58:55.769Z,2.90
2023-11-04T22:01:24.114Z,2.60
2023-11-04T22:03:51.101Z,2.80
2023-11-04T22:06:18.109Z,4.55
2023-11-04T22:08:46.806Z,3.72
2023-11-04T22:11:13.937Z,3.20
2023-11-04T22:13:41.222Z,3.35
2023-11-04T22:16:08.450Z,4.80
2023-11-04T22:18:35.525Z,4.82
2023-11-04T22:21:02.717Z,4.30
2023-11-04T22:23:29.611Z,3.97
2023-11-04T22:25:56.968Z,4.20
2023-11-04T22:28:24.350Z,3.28
2023-11-04T22:30:51.254Z,3.58
2023-11-04T22:33:19.034Z,3.90
2023-11-04T22:35:46.061Z,3.45
2023-11-04T22:38:13.015Z,3.58
2023-11-04T22:40:40.006Z,3.50
2023-11-04T22:43:06.942Z,3.55
2023-11-04T22:45:33.977Z,4.03
2023-11-04T22:48:00.995Z,3.80
2023-11-04T22:50:28.474Z,3.22
2023-11-04T22:52:55.376Z,2.63
2023-11-04T22:55:22.493Z,2.92
2023-11-04T22:57:49.742Z,2.40
2023-11-04T23:00:36.954Z,2.15
2023-11-04T23:03:04.119Z,1.80
2023-11-04T23:05:33.634Z,1.88
2023-11-04T23:08:00.763Z,1.92
2023-11-04T23:10:27.761Z,1.65
2023-11-04T23:12:54.907Z,1.55
2023-11-04T23:15:25.868Z,1.70
2023-11-04T23:17:54.381Z,1.70
2023-11-04T23:20:23.424Z,1.60
2023-11-04T23:22:51.860Z,1.80
2023-11-04T23:25:21.833Z,1.90
2023-11-04T23:27:50.282Z,2.03
2023-11-04T23:30:17.447Z,2.53
2023-11-04T23:32:45.415Z,2.40
2023-11-04T23:35:12.554Z,2.30
2023-11-04T23:37:39.563Z,2.65
2023-11-04T23:40:07.430Z,2.53
2023-11-04T23:42:34.567Z,2.95
2023-11-04T23:45:01.729Z,2.85
2023-11-04T23:47:28.679Z,2.83
2023-11-04T23:49:55.659Z,2.67
2023-11-04T23:52:23.571Z,2.30
2023-11-04T23:54:50.640Z,2.72
2023-11-04T23:57:17.953Z,2.60
2023-11-04T23:59:45.120Z,2.67
